sensor_id;sensor_type;location;lat;lon;timestamp;P1;durP1;ratioP1;P2;durP2;ratioP2
62071;SDS011;48031;48.542;13.232;2022-12-16T00:01:48;10.23;;;5.32;;
62071;SDS011;48031;48.542;13.232;2022-12-16T00:05:53;9.27;;;5.10;;
62071;SDS011;48031;48.542;13.232;2022-12-16T00:09:55;7.57;;;4.45;;
62071;SDS011;48031;48.542;13.232;2022-12-16T00:13:57;15.15;;;7.68;;
62071;SDS011;48031;48.542;13.232;2022-12-16T00:17:59;13.85;;;6.53;;
62071;SDS011;48031;48.542;13.232;2022-12-16T00:22:01;12.63;;;6.80;;
62071;SDS011;48031;48.542;13.232;2022-12-16T00:26:02;19.25;;;10.05;;
62071;SDS011;48031;48.542;13.232;2022-12-16T00:30:04;12.15;;;6.45;;
62071;SDS011;48031;48.542;13.232;2022-12-16T00:34:06;13.85;;;6.47;;
62071;SDS011;48031;48.542;13.232;2022-12-16T00:38:08;10.23;;;5.50;;
62071;SDS011;48031;48.542;13.232;2022-12-16T00:42:10;10.88;;;5.50;;
62071;SDS011;48031;48.542;13.232;2022-12-16T00:46:12;14.23;;;6.50;;
62071;SDS011;48031;48.542;13.232;2022-12-16T00:50:14;14.05;;;6.60;;
62071;SDS011;48031;48.542;13.232;2022-12-16T00:54:16;16.15;;;7.20;;
62071;SDS011;48031;48.542;13.232;2022-12-16T00:58:18;16.75;;;7.15;;
62071;SDS011;48031;48.542;13.232;2022-12-16T01:02:20;16.52;;;6.93;;
62071;SDS011;48031;48.542;13.232;2022-12-16T01:06:22;12.93;;;5.78;;
62071;SDS011;48031;48.542;13.232;2022-12-16T01:10:24;10.63;;;5.40;;
62071;SDS011;48031;48.542;13.232;2022-12-16T01:14:26;12.85;;;5.60;;
62071;SDS011;48031;48.542;13.232;2022-12-16T01:18:28;10.32;;;4.88;;
62071;SDS011;48031;48.542;13.232;2022-12-16T01:22:30;12.73;;;6.13;;
62071;SDS011;48031;48.542;13.232;2022-12-16T01:26:33;9.10;;;5.05;;
62071;SDS011;48031;48.542;13.232;2022-12-16T01:30:35;10.82;;;4.75;;
62071;SDS011;48031;48.542;13.232;2022-12-16T01:34:37;12.65;;;5.88;;
62071;SDS011;48031;48.542;13.232;2022-12-16T01:38:40;9.63;;;4.75;;
62071;SDS011;48031;48.542;13.232;2022-12-16T01:42:43;10.57;;;5.75;;
62071;SDS011;48031;48.542;13.232;2022-12-16T01:46:48;17.08;;;7.43;;
62071;SDS011;48031;48.542;13.232;2022-12-16T01:50:53;24.10;;;9.70;;
62071;SDS011;48031;48.542;13.232;2022-12-16T01:59:08;19.13;;;8.50;;
62071;SDS011;48031;48.542;13.232;2022-12-16T02:03:14;25.20;;;9.88;;
62071;SDS011;48031;48.542;13.232;2022-12-16T02:07:16;32.28;;;13.10;;
62071;SDS011;48031;48.542;13.232;2022-12-16T02:16:13;33.17;;;12.77;;
62071;SDS011;48031;48.542;13.232;2022-12-16T02:20:41;33.83;;;14.00;;
62071;SDS011;48031;48.542;13.232;2022-12-16T02:37:36;28.58;;;12.35;;
62071;SDS011;48031;48.542;13.232;2022-12-16T02:41:52;21.90;;;9.65;;
62071;SDS011;48031;48.542;13.232;2022-12-16T02:46:02;26.42;;;10.57;;
62071;SDS011;48031;48.542;13.232;2022-12-16T02:50:17;22.85;;;10.50;;
62071;SDS011;48031;48.542;13.232;2022-12-16T02:54:22;22.85;;;10.23;;
62071;SDS011;48031;48.542;13.232;2022-12-16T03:02:59;17.73;;;9.02;;
62071;SDS011;48031;48.542;13.232;2022-12-16T03:07:09;19.70;;;10.50;;
62071;SDS011;48031;48.542;13.232;2022-12-16T03:11:15;29.27;;;13.55;;
62071;SDS011;48031;48.542;13.232;2022-12-16T03:15:18;24.15;;;11.98;;
62071;SDS011;48031;48.542;13.232;2022-12-16T03:19:23;15.30;;;7.68;;
62071;SDS011;48031;48.542;13.232;2022-12-16T03:23:27;24.33;;;12.20;;
62071;SDS011;48031;48.542;13.232;2022-12-16T03:27:47;25.70;;;12.68;;
62071;SDS011;48031;48.542;13.232;2022-12-16T03:31:57;28.60;;;11.95;;
62071;SDS011;48031;48.542;13.232;2022-12-16T03:36:06;24.75;;;11.65;;
62071;SDS011;48031;48.542;13.232;2022-12-16T03:40:13;26.30;;;12.55;;
62071;SDS011;48031;48.542;13.232;2022-12-16T03:44:16;31.42;;;12.52;;
62071;SDS011;48031;48.542;13.232;2022-12-16T03:48:21;18.10;;;8.55;;
62071;SDS011;48031;48.542;13.232;2022-12-16T03:52:26;28.83;;;13.65;;
62071;SDS011;48031;48.542;13.232;2022-12-16T03:56:28;32.05;;;13.80;;
62071;SDS011;48031;48.542;13.232;2022-12-16T04:00:29;24.35;;;11.43;;
62071;SDS011;48031;48.542;13.232;2022-12-16T04:04:31;27.15;;;11.85;;
62071;SDS011;48031;48.542;13.232;2022-12-16T04:08:33;32.80;;;14.10;;
62071;SDS011;48031;48.542;13.232;2022-12-16T04:12:35;41.35;;;16.67;;
62071;SDS011;48031;48.542;13.232;2022-12-16T04:16:56;37.60;;;16.35;;
62071;SDS011;48031;48.542;13.232;2022-12-16T04:21:17;33.33;;;13.65;;
62071;SDS011;48031;48.542;13.232;2022-12-16T04:25:37;36.35;;;14.48;;
62071;SDS011;48031;48.542;13.232;2022-12-16T04:29:40;41.75;;;15.02;;
62071;SDS011;48031;48.542;13.232;2022-12-16T04:34:00;39.10;;;16.02;;
62071;SDS011;48031;48.542;13.232;2022-12-16T04:38:21;48.00;;;18.23;;
62071;SDS011;48031;48.542;13.232;2022-12-16T04:42:42;36.15;;;15.07;;
62071;SDS011;48031;48.542;13.232;2022-12-16T04:47:03;35.88;;;14.48;;
62071;SDS011;48031;48.542;13.232;2022-12-16T04:51:23;39.13;;;16.33;;
62071;SDS011;48031;48.542;13.232;2022-12-16T04:55:43;39.53;;;15.25;;
62071;SDS011;48031;48.542;13.232;2022-12-16T05:00:05;37.13;;;13.68;;
62071;SDS011;48031;48.542;13.232;2022-12-16T05:04:27;28.05;;;12.60;;
62071;SDS011;48031;48.542;13.232;2022-12-16T05:08:47;35.55;;;13.52;;
62071;SDS011;48031;48.542;13.232;2022-12-16T05:13:07;47.88;;;18.02;;
62071;SDS011;48031;48.542;13.232;2022-12-16T05:17:28;36.78;;;14.10;;
62071;SDS011;48031;48.542;13.232;2022-12-16T05:21:48;35.67;;;15.32;;
62071;SDS011;48031;48.542;13.232;2022-12-16T05:26:08;40.30;;;16.27;;
62071;SDS011;48031;48.542;13.232;2022-12-16T05:30:29;32.40;;;12.35;;
62071;SDS011;48031;48.542;13.232;2022-12-16T05:34:50;40.88;;;16.15;;
62071;SDS011;48031;48.542;13.232;2022-12-16T05:39:10;45.08;;;16.33;;
62071;SDS011;48031;48.542;13.232;2022-12-16T05:43:31;40.08;;;15.77;;
62071;SDS011;48031;48.542;13.232;2022-12-16T05:47:51;34.53;;;13.52;;
62071;SDS011;48031;48.542;13.232;2022-12-16T05:52:12;43.08;;;17.17;;
62071;SDS011;48031;48.542;13.232;2022-12-16T05:56:32;37.72;;;14.23;;
62071;SDS011;48031;48.542;13.232;2022-12-16T06:00:53;38.42;;;16.63;;
62071;SDS011;48031;48.542;13.232;2022-12-16T06:05:13;37.47;;;14.35;;
62071;SDS011;48031;48.542;13.232;2022-12-16T06:09:34;39.70;;;14.52;;
62071;SDS011;48031;48.542;13.232;2022-12-16T06:13:57;50.17;;;18.88;;
62071;SDS011;48031;48.542;13.232;2022-12-16T06:18:17;34.58;;;13.73;;
62071;SDS011;48031;48.542;13.232;2022-12-16T06:22:38;31.27;;;13.98;;
62071;SDS011;48031;48.542;13.232;2022-12-16T06:26:58;41.55;;;16.98;;
62071;SDS011;48031;48.542;13.232;2022-12-16T06:31:19;38.90;;;15.88;;
62071;SDS011;48031;48.542;13.232;2022-12-16T06:35:39;30.42;;;12.63;;
62071;SDS011;48031;48.542;13.232;2022-12-16T06:39:59;40.35;;;14.60;;
62071;SDS011;48031;48.542;13.232;2022-12-16T06:44:20;32.63;;;12.85;;
62071;SDS011;48031;48.542;13.232;2022-12-16T06:48:40;26.17;;;11.30;;
62071;SDS011;48031;48.542;13.232;2022-12-16T06:53:00;32.45;;;11.80;;
62071;SDS011;48031;48.542;13.232;2022-12-16T06:57:21;34.88;;;14.15;;
62071;SDS011;48031;48.542;13.232;2022-12-16T07:01:41;38.83;;;15.02;;
62071;SDS011;48031;48.542;13.232;2022-12-16T07:06:02;42.42;;;16.85;;
62071;SDS011;48031;48.542;13.232;2022-12-16T07:10:22;33.45;;;13.63;;
62071;SDS011;48031;48.542;13.232;2022-12-16T07:14:42;40.00;;;15.77;;
62071;SDS011;48031;48.542;13.232;2022-12-16T07:19:03;35.00;;;13.45;;
62071;SDS011;48031;48.542;13.232;2022-12-16T07:23:31;35.60;;;15.00;;
62071;SDS011;48031;48.542;13.232;2022-12-16T07:27:51;26.45;;;10.95;;
62071;SDS011;48031;48.542;13.232;2022-12-16T07:32:16;33.15;;;12.77;;
62071;SDS011;48031;48.542;13.232;2022-12-16T07:36:36;28.15;;;11.43;;
62071;SDS011;48031;48.542;13.232;2022-12-16T07:40:57;24.52;;;9.13;;
62071;SDS011;48031;48.542;13.232;2022-12-16T07:45:17;22.13;;;10.38;;
62071;SDS011;48031;48.542;13.232;2022-12-16T07:49:45;19.73;;;8.75;;
62071;SDS011;48031;48.542;13.232;2022-12-16T07:54:05;19.88;;;8.20;;
62071;SDS011;48031;48.542;13.232;2022-12-16T07:58:26;22.95;;;8.57;;
62071;SDS011;48031;48.542;13.232;2022-12-16T08:02:50;20.40;;;8.82;;
62071;SDS011;48031;48.542;13.232;2022-12-16T08:07:12;28.63;;;11.98;;
62071;SDS011;48031;48.542;13.232;2022-12-16T08:11:32;33.35;;;13.75;;
62071;SDS011;48031;48.542;13.232;2022-12-16T08:16:09;27.67;;;10.90;;
62071;SDS011;48031;48.542;13.232;2022-12-16T08:20:30;22.25;;;9.63;;
62071;SDS011;48031;48.542;13.232;2022-12-16T08:24:50;20.00;;;8.88;;
62071;SDS011;48031;48.542;13.232;2022-12-16T08:29:11;30.45;;;11.27;;
62071;SDS011;48031;48.542;13.232;2022-12-16T08:33:47;18.73;;;7.22;;
62071;SDS011;48031;48.542;13.232;2022-12-16T08:38:08;22.75;;;10.63;;
62071;SDS011;48031;48.542;13.232;2022-12-16T08:42:29;23.17;;;8.65;;
62071;SDS011;48031;48.542;13.232;2022-12-16T08:46:50;25.55;;;11.18;;
62071;SDS011;48031;48.542;13.232;2022-12-16T08:51:10;21.63;;;10.32;;
62071;SDS011;48031;48.542;13.232;2022-12-16T08:55:31;26.67;;;12.73;;
62071;SDS011;48031;48.542;13.232;2022-12-16T08:59:56;23.27;;;10.63;;
62071;SDS011;48031;48.542;13.232;2022-12-16T09:04:16;29.20;;;12.00;;
62071;SDS011;48031;48.542;13.232;2022-12-16T09:08:37;30.00;;;12.85;;
62071;SDS011;48031;48.542;13.232;2022-12-16T09:13:10;22.38;;;10.65;;
62071;SDS011;48031;48.542;13.232;2022-12-16T09:17:53;35.55;;;14.63;;
62071;SDS011;48031;48.542;13.232;2022-12-16T09:22:14;34.72;;;15.48;;
62071;SDS011;48031;48.542;13.232;2022-12-16T09:26:34;29.35;;;12.73;;
62071;SDS011;48031;48.542;13.232;2022-12-16T09:30:54;28.63;;;11.18;;
62071;SDS011;48031;48.542;13.232;2022-12-16T09:35:15;36.30;;;16.38;;
62071;SDS011;48031;48.542;13.232;2022-12-16T09:39:35;28.48;;;12.95;;
62071;SDS011;48031;48.542;13.232;2022-12-16T09:44:01;29.27;;;13.38;;
62071;SDS011;48031;48.542;13.232;2022-12-16T09:53:10;27.90;;;11.32;;
62071;SDS011;48031;48.542;13.232;2022-12-16T09:57:34;27.08;;;11.80;;
62071;SDS011;48031;48.542;13.232;2022-12-16T10:02:13;20.17;;;9.73;;
62071;SDS011;48031;48.542;13.232;2022-12-16T10:11:11;33.30;;;14.40;;
62071;SDS011;48031;48.542;13.232;2022-12-16T10:15:44;34.90;;;15.98;;
62071;SDS011;48031;48.542;13.232;2022-12-16T10:24:55;43.65;;;18.10;;
62071;SDS011;48031;48.542;13.232;2022-12-16T10:29:32;46.08;;;18.35;;
62071;SDS011;48031;48.542;13.232;2022-12-16T10:33:57;35.17;;;15.13;;
62071;SDS011;48031;48.542;13.232;2022-12-16T10:38:22;41.88;;;16.95;;
62071;SDS011;48031;48.542;13.232;2022-12-16T10:43:06;37.45;;;16.83;;
62071;SDS011;48031;48.542;13.232;2022-12-16T10:47:35;40.78;;;16.83;;
62071;SDS011;48031;48.542;13.232;2022-12-16T10:51:56;46.80;;;19.35;;
62071;SDS011;48031;48.542;13.232;2022-12-16T11:00:50;38.38;;;16.02;;
62071;SDS011;48031;48.542;13.232;2022-12-16T11:09:47;43.25;;;18.67;;
62071;SDS011;48031;48.542;13.232;2022-12-16T11:14:13;45.78;;;18.08;;
62071;SDS011;48031;48.542;13.232;2022-12-16T11:18:34;30.25;;;13.75;;
62071;SDS011;48031;48.542;13.232;2022-12-16T11:27:43;35.22;;;14.95;;
62071;SDS011;48031;48.542;13.232;2022-12-16T11:32:20;27.30;;;11.80;;
62071;SDS011;48031;48.542;13.232;2022-12-16T11:36:43;27.88;;;12.93;;
62071;SDS011;48031;48.542;13.232;2022-12-16T11:41:06;46.97;;;18.52;;
62071;SDS011;48031;48.542;13.232;2022-12-16T11:45:29;46.42;;;18.92;;
62071;SDS011;48031;48.542;13.232;2022-12-16T11:49:49;42.63;;;17.23;;
62071;SDS011;48031;48.542;13.232;2022-12-16T11:54:18;37.05;;;15.52;;
62071;SDS011;48031;48.542;13.232;2022-12-16T11:58:45;34.17;;;14.48;;
62071;SDS011;48031;48.542;13.232;2022-12-16T12:07:47;43.95;;;17.85;;
62071;SDS011;48031;48.542;13.232;2022-12-16T12:17:01;39.13;;;15.73;;
62071;SDS011;48031;48.542;13.232;2022-12-16T12:21:35;37.00;;;15.15;;
62071;SDS011;48031;48.542;13.232;2022-12-16T12:30:23;36.63;;;15.50;;
62071;SDS011;48031;48.542;13.232;2022-12-16T12:39:45;43.47;;;17.65;;
62071;SDS011;48031;48.542;13.232;2022-12-16T12:49:21;50.13;;;19.52;;
62071;SDS011;48031;48.542;13.232;2022-12-16T12:54:24;53.95;;;21.75;;
62071;SDS011;48031;48.542;13.232;2022-12-16T12:58:49;47.58;;;18.45;;
62071;SDS011;48031;48.542;13.232;2022-12-16T13:13:31;45.88;;;17.70;;
62071;SDS011;48031;48.542;13.232;2022-12-16T13:22:29;35.15;;;13.95;;
62071;SDS011;48031;48.542;13.232;2022-12-16T13:26:58;36.20;;;14.23;;
62071;SDS011;48031;48.542;13.232;2022-12-16T13:31:21;42.47;;;17.58;;
62071;SDS011;48031;48.542;13.232;2022-12-16T13:40:18;53.85;;;21.10;;
62071;SDS011;48031;48.542;13.232;2022-12-16T13:53:56;55.22;;;20.45;;
62071;SDS011;48031;48.542;13.232;2022-12-16T13:58:28;44.92;;;17.73;;
62071;SDS011;48031;48.542;13.232;2022-12-16T14:02:57;38.17;;;16.80;;
62071;SDS011;48031;48.542;13.232;2022-12-16T14:07:21;45.25;;;17.88;;
62071;SDS011;48031;48.542;13.232;2022-12-16T14:11:49;35.08;;;13.70;;
62071;SDS011;48031;48.542;13.232;2022-12-16T14:16:29;40.30;;;15.48;;
62071;SDS011;48031;48.542;13.232;2022-12-16T14:20:57;37.10;;;15.02;;
62071;SDS011;48031;48.542;13.232;2022-12-16T14:25:21;26.92;;;11.32;;
62071;SDS011;48031;48.542;13.232;2022-12-16T14:29:42;40.83;;;16.83;;
62071;SDS011;48031;48.542;13.232;2022-12-16T14:34:03;45.80;;;17.50;;
62071;SDS011;48031;48.542;13.232;2022-12-16T14:38:25;37.45;;;14.70;;
62071;SDS011;48031;48.542;13.232;2022-12-16T14:42:48;41.92;;;15.48;;
62071;SDS011;48031;48.542;13.232;2022-12-16T14:47:17;46.00;;;19.08;;
62071;SDS011;48031;48.542;13.232;2022-12-16T14:51:46;35.10;;;13.90;;
62071;SDS011;48031;48.542;13.232;2022-12-16T15:00:40;39.20;;;15.90;;
62071;SDS011;48031;48.542;13.232;2022-12-16T15:05:05;29.92;;;12.18;;
62071;SDS011;48031;48.542;13.232;2022-12-16T15:09:28;43.92;;;17.02;;
62071;SDS011;48031;48.542;13.232;2022-12-16T15:13:53;36.67;;;15.30;;
62071;SDS011;48031;48.542;13.232;2022-12-16T15:18:18;35.15;;;14.23;;
62071;SDS011;48031;48.542;13.232;2022-12-16T15:22:44;36.55;;;14.75;;
62071;SDS011;48031;48.542;13.232;2022-12-16T15:31:40;29.83;;;12.82;;
62071;SDS011;48031;48.542;13.232;2022-12-16T15:36:04;35.03;;;14.15;;
62071;SDS011;48031;48.542;13.232;2022-12-16T15:40:26;31.52;;;13.65;;
62071;SDS011;48031;48.542;13.232;2022-12-16T15:44:49;29.55;;;12.85;;
62071;SDS011;48031;48.542;13.232;2022-12-16T15:49:30;31.52;;;13.85;;
62071;SDS011;48031;48.542;13.232;2022-12-16T15:54:02;33.63;;;13.73;;
62071;SDS011;48031;48.542;13.232;2022-12-16T16:02:47;31.98;;;12.13;;
62071;SDS011;48031;48.542;13.232;2022-12-16T16:07:14;41.08;;;16.67;;
62071;SDS011;48031;48.542;13.232;2022-12-16T16:11:37;42.42;;;16.90;;
62071;SDS011;48031;48.542;13.232;2022-12-16T16:15:57;42.08;;;17.27;;
62071;SDS011;48031;48.542;13.232;2022-12-16T16:20:18;33.30;;;13.10;;
62071;SDS011;48031;48.542;13.232;2022-12-16T16:24:38;36.25;;;14.35;;
62071;SDS011;48031;48.542;13.232;2022-12-16T16:28:58;29.73;;;12.38;;
62071;SDS011;48031;48.542;13.232;2022-12-16T16:33:19;39.15;;;15.77;;
62071;SDS011;48031;48.542;13.232;2022-12-16T16:37:39;36.47;;;14.35;;
62071;SDS011;48031;48.542;13.232;2022-12-16T16:42:00;33.38;;;13.40;;
62071;SDS011;48031;48.542;13.232;2022-12-16T16:50:56;22.95;;;8.43;;
62071;SDS011;48031;48.542;13.232;2022-12-16T16:55:19;28.17;;;11.55;;
62071;SDS011;48031;48.542;13.232;2022-12-16T16:59:41;28.48;;;11.00;;
62071;SDS011;48031;48.542;13.232;2022-12-16T17:04:02;30.77;;;12.40;;
62071;SDS011;48031;48.542;13.232;2022-12-16T17:08:23;20.88;;;8.82;;
62071;SDS011;48031;48.542;13.232;2022-12-16T17:12:43;19.30;;;8.50;;
62071;SDS011;48031;48.542;13.232;2022-12-16T17:17:05;20.75;;;8.05;;
62071;SDS011;48031;48.542;13.232;2022-12-16T17:21:26;23.83;;;11.18;;
62071;SDS011;48031;48.542;13.232;2022-12-16T17:25:46;18.77;;;7.57;;
62071;SDS011;48031;48.542;13.232;2022-12-16T17:34:47;22.95;;;10.65;;
62071;SDS011;48031;48.542;13.232;2022-12-16T17:39:08;20.77;;;8.60;;
62071;SDS011;48031;48.542;13.232;2022-12-16T17:43:29;24.60;;;9.27;;
62071;SDS011;48031;48.542;13.232;2022-12-16T17:47:49;18.20;;;8.25;;
62071;SDS011;48031;48.542;13.232;2022-12-16T17:52:10;21.98;;;9.32;;
62071;SDS011;48031;48.542;13.232;2022-12-16T17:56:30;20.83;;;8.75;;
62071;SDS011;48031;48.542;13.232;2022-12-16T18:00:51;23.73;;;9.95;;
62071;SDS011;48031;48.542;13.232;2022-12-16T18:05:11;15.07;;;7.97;;
62071;SDS011;48031;48.542;13.232;2022-12-16T18:09:42;14.90;;;7.07;;
62071;SDS011;48031;48.542;13.232;2022-12-16T18:14:03;27.40;;;11.27;;
62071;SDS011;48031;48.542;13.232;2022-12-16T18:18:23;33.03;;;12.25;;
62071;SDS011;48031;48.542;13.232;2022-12-16T18:22:46;32.42;;;13.15;;
62071;SDS011;48031;48.542;13.232;2022-12-16T18:27:10;28.90;;;11.50;;
62071;SDS011;48031;48.542;13.232;2022-12-16T18:31:31;27.38;;;10.98;;
62071;SDS011;48031;48.542;13.232;2022-12-16T18:35:52;36.03;;;14.57;;
62071;SDS011;48031;48.542;13.232;2022-12-16T18:40:12;42.55;;;17.50;;
62071;SDS011;48031;48.542;13.232;2022-12-16T18:44:33;32.72;;;13.60;;
62071;SDS011;48031;48.542;13.232;2022-12-16T18:49:01;35.55;;;14.20;;
62071;SDS011;48031;48.542;13.232;2022-12-16T18:53:22;32.53;;;13.30;;
62071;SDS011;48031;48.542;13.232;2022-12-16T18:57:42;31.20;;;11.65;;
62071;SDS011;48031;48.542;13.232;2022-12-16T19:02:16;24.35;;;10.07;;
62071;SDS011;48031;48.542;13.232;2022-12-16T19:06:37;33.38;;;12.75;;
62071;SDS011;48031;48.542;13.232;2022-12-16T19:10:57;26.17;;;10.73;;
62071;SDS011;48031;48.542;13.232;2022-12-16T19:15:17;29.25;;;11.35;;
62071;SDS011;48031;48.542;13.232;2022-12-16T19:19:42;22.13;;;9.00;;
62071;SDS011;48031;48.542;13.232;2022-12-16T19:24:02;24.27;;;10.25;;
62071;SDS011;48031;48.542;13.232;2022-12-16T19:28:22;24.90;;;9.48;;
62071;SDS011;48031;48.542;13.232;2022-12-16T19:32:46;27.20;;;10.48;;
62071;SDS011;48031;48.542;13.232;2022-12-16T19:37:07;33.15;;;12.10;;
62071;SDS011;48031;48.542;13.232;2022-12-16T19:41:28;26.45;;;10.60;;
62071;SDS011;48031;48.542;13.232;2022-12-16T19:45:54;22.15;;;9.70;;
62071;SDS011;48031;48.542;13.232;2022-12-16T19:54:35;26.23;;;11.18;;
62071;SDS011;48031;48.542;13.232;2022-12-16T19:58:56;22.60;;;10.68;;
62071;SDS011;48031;48.542;13.232;2022-12-16T20:03:17;25.20;;;9.98;;
62071;SDS011;48031;48.542;13.232;2022-12-16T20:07:38;19.90;;;9.43;;
62071;SDS011;48031;48.542;13.232;2022-12-16T20:11:58;28.00;;;10.90;;
62071;SDS011;48031;48.542;13.232;2022-12-16T20:16:19;20.60;;;8.82;;
62071;SDS011;48031;48.542;13.232;2022-12-16T20:20:39;30.45;;;11.52;;
62071;SDS011;48031;48.542;13.232;2022-12-16T20:24:59;35.88;;;14.02;;
62071;SDS011;48031;48.542;13.232;2022-12-16T20:29:20;30.15;;;12.30;;
62071;SDS011;48031;48.542;13.232;2022-12-16T20:33:40;26.08;;;10.98;;
62071;SDS011;48031;48.542;13.232;2022-12-16T20:38:03;25.80;;;10.43;;
62071;SDS011;48031;48.542;13.232;2022-12-16T20:42:24;22.42;;;9.63;;
62071;SDS011;48031;48.542;13.232;2022-12-16T20:46:45;15.65;;;7.72;;
62071;SDS011;48031;48.542;13.232;2022-12-16T20:51:07;26.45;;;12.27;;
62071;SDS011;48031;48.542;13.232;2022-12-16T20:55:27;24.10;;;10.57;;
62071;SDS011;48031;48.542;13.232;2022-12-16T20:59:47;22.10;;;8.80;;
62071;SDS011;48031;48.542;13.232;2022-12-16T21:04:08;15.48;;;7.60;;
62071;SDS011;48031;48.542;13.232;2022-12-16T21:08:28;16.50;;;7.22;;
62071;SDS011;48031;48.542;13.232;2022-12-16T21:12:49;13.32;;;6.20;;
62071;SDS011;48031;48.542;13.232;2022-12-16T21:17:09;15.52;;;5.93;;
62071;SDS011;48031;48.542;13.232;2022-12-16T21:21:30;14.25;;;6.57;;
62071;SDS011;48031;48.542;13.232;2022-12-16T21:25:50;18.70;;;8.98;;
62071;SDS011;48031;48.542;13.232;2022-12-16T21:30:10;15.85;;;7.28;;
62071;SDS011;48031;48.542;13.232;2022-12-16T21:34:31;16.83;;;7.53;;
62071;SDS011;48031;48.542;13.232;2022-12-16T21:38:52;17.88;;;6.78;;
62071;SDS011;48031;48.542;13.232;2022-12-16T21:43:14;15.43;;;8.75;;
62071;SDS011;48031;48.542;13.232;2022-12-16T21:47:35;18.45;;;8.35;;
62071;SDS011;48031;48.542;13.232;2022-12-16T21:51:56;16.40;;;7.65;;
62071;SDS011;48031;48.542;13.232;2022-12-16T21:56:16;18.17;;;7.80;;
62071;SDS011;48031;48.542;13.232;2022-12-16T22:00:37;16.83;;;7.68;;
62071;SDS011;48031;48.542;13.232;2022-12-16T22:05:01;15.25;;;7.45;;
62071;SDS011;48031;48.542;13.232;2022-12-16T22:09:21;19.15;;;8.32;;
62071;SDS011;48031;48.542;13.232;2022-12-16T22:13:41;14.90;;;7.65;;
62071;SDS011;48031;48.542;13.232;2022-12-16T22:18:02;24.38;;;11.00;;
62071;SDS011;48031;48.542;13.232;2022-12-16T22:22:23;21.15;;;9.82;;
62071;SDS011;48031;48.542;13.232;2022-12-16T22:26:43;21.13;;;8.82;;
62071;SDS011;48031;48.542;13.232;2022-12-16T22:31:04;22.98;;;11.02;;
62071;SDS011;48031;48.542;13.232;2022-12-16T22:35:24;23.27;;;9.02;;
62071;SDS011;48031;48.542;13.232;2022-12-16T22:39:45;22.63;;;9.90;;
62071;SDS011;48031;48.542;13.232;2022-12-16T22:44:06;21.98;;;8.15;;
62071;SDS011;48031;48.542;13.232;2022-12-16T22:48:27;17.00;;;7.75;;
62071;SDS011;48031;48.542;13.232;2022-12-16T22:52:47;19.30;;;8.13;;
62071;SDS011;48031;48.542;13.232;2022-12-16T22:57:07;16.98;;;8.25;;
62071;SDS011;48031;48.542;13.232;2022-12-16T23:01:28;19.92;;;8.48;;
62071;SDS011;48031;48.542;13.232;2022-12-16T23:05:48;23.40;;;10.25;;
62071;SDS011;48031;48.542;13.232;2022-12-16T23:10:10;24.88;;;10.75;;
62071;SDS011;48031;48.542;13.232;2022-12-16T23:14:30;26.88;;;11.57;;
62071;SDS011;48031;48.542;13.232;2022-12-16T23:18:53;28.45;;;11.68;;
62071;SDS011;48031;48.542;13.232;2022-12-16T23:23:13;35.03;;;12.63;;
62071;SDS011;48031;48.542;13.232;2022-12-16T23:27:34;31.80;;;12.07;;
62071;SDS011;48031;48.542;13.232;2022-12-16T23:31:54;27.25;;;11.55;;
62071;SDS011;48031;48.542;13.232;2022-12-16T23:36:15;27.05;;;11.65;;
62071;SDS011;48031;48.542;13.232;2022-12-16T23:40:35;31.15;;;13.85;;
62071;SDS011;48031;48.542;13.232;2022-12-16T23:44:57;24.55;;;10.93;;
62071;SDS011;48031;48.542;13.232;2022-12-16T23:49:17;29.38;;;13.40;;
62071;SDS011;48031;48.542;13.232;2022-12-16T23:53:38;35.17;;;13.95;;
62071;SDS011;48031;48.542;13.232;2022-12-16T23:58:00;28.45;;;11.43;;
